Time;durP1;ratioP1;P1;durP2;ratioP2;P2;SDS_P1;SDS_P2;PMS_P1;PMS_P2;Temp;Humidity;BMP_temperature;BMP_pressure;BME280_temperature;BME280_humidity;BME280_pressure;Samples;Min_cycle;Max_cycle;Signal;HPM_P1;HPM_P2
2023/08/02 00:05:20;;;;;;;3.47;0.98;;;;;;;21.72;47.48;100051.47;16117163;19;134416;-58
2023/08/02 00:10:42;;;;;;;1.35;0.65;;;;;;;21.71;47.51;100035.88;16117862;19;130906;-55
2023/08/02 00:16:05;;;;;;;1.80;0.93;;;;;;;21.69;47.54;100030.59;16117945;19;130084;-57
2023/08/02 00:21:27;;;;;;;1.88;0.90;;;;;;;21.69;47.54;100021.41;16117277;19;129429;-55
2023/08/02 00:26:49;;;;;;;1.75;0.50;;;;;;;21.68;47.16;100037.28;16117086;19;129539;-57
2023/08/02 00:32:11;;;;;;;2.15;0.80;;;;;;;21.66;47.44;100029.22;16118765;19;130063;-53
2023/08/02 00:37:33;;;;;;;1.65;0.60;;;;;;;21.66;47.35;100031.19;16119073;19;130037;-55
2023/08/02 00:42:55;;;;;;;1.60;0.60;;;;;;;21.67;47.67;100016.97;16115640;19;129465;-56
2023/08/02 00:48:17;;;;;;;0.93;0.50;;;;;;;21.67;47.32;100007.78;16121489;19;129728;-53
2023/08/02 00:53:40;;;;;;;2.42;0.60;;;;;;;21.65;47.46;99998.91;16116583;19;130466;-55
2023/08/02 00:59:02;;;;;;;1.95;0.60;;;;;;;21.64;47.31;99998.06;16119683;19;129598;-55
2023/08/02 01:04:24;;;;;;;1.48;0.50;;;;;;;21.64;47.53;99994.47;16117108;19;129679;-55
2023/08/02 01:09:54;;;;;;;1.30;0.40;;;;;;;21.64;47.63;99991.69;16111706;19;130823;-52
2023/08/02 01:15:17;;;;;;;1.23;0.60;;;;;;;21.62;47.67;99993.91;16112922;19;129502;-56
2023/08/02 01:20:39;;;;;;;2.50;0.50;;;;;;;21.61;47.75;99976.38;16115095;19;129397;-57
2023/08/02 01:26:04;;;;;;;1.35;0.60;;;;;;;21.61;47.54;99958.84;16112352;19;131623;-58
2023/08/02 01:31:27;;;;;;;;;;;;;;;21.57;47.81;99929.94;16115228;19;131699;-54
2023/08/02 01:36:49;;;;;;;0.70;0.40;;;;;;;21.60;47.40;99929.34;16114249;19;129849;-56
2023/08/02 01:42:11;;;;;;;1.15;0.47;;;;;;;21.58;47.53;99934.38;16113047;19;130753;-55
2023/08/02 01:47:33;;;;;;;1.73;0.40;;;;;;;21.57;47.32;99918.78;16108569;19;130515;-56
2023/08/02 01:52:55;;;;;;;1.55;0.40;;;;;;;21.57;47.27;99904.88;16113450;19;130459;-54
2023/08/02 01:58:17;;;;;;;0.88;0.43;;;;;;;21.55;47.79;99888.47;16114006;19;131067;-54
2023/08/02 02:03:40;;;;;;;1.85;0.70;;;;;;;21.56;47.41;99878.16;16114543;19;129356;-57
2023/08/02 02:09:02;;;;;;;1.45;0.50;;;;;;;21.54;47.52;99863.75;16111673;19;130383;-56
2023/08/02 02:14:24;;;;;;;2.10;0.60;;;;;;;21.55;47.43;99846.75;16109525;19;131664;-55
2023/08/02 02:19:46;;;;;;;1.60;0.57;;;;;;;21.55;47.55;99809.72;16111985;19;131119;-54
2023/08/02 02:25:08;;;;;;;0.90;0.47;;;;;;;21.55;47.49;99815.28;16109140;19;130874;-59
2023/08/02 02:30:31;;;;;;;0.90;0.40;;;;;;;21.54;47.45;99819.22;16122261;19;131472;-56
2023/08/02 02:35:53;;;;;;;1.45;0.60;;;;;;;21.53;47.59;99815.59;16127270;19;129750;-55
2023/08/02 02:41:14;;;;;;;1.13;0.50;;;;;;;21.52;47.64;99814.78;16123896;19;129691;-56
2023/08/02 02:46:36;;;;;;;0.73;0.43;;;;;;;21.52;47.51;99820.34;16127274;19;131275;-55
2023/08/02 02:51:59;;;;;;;1.63;0.50;;;;;;;21.52;47.64;99800.00;16125942;19;131098;-54
2023/08/02 02:57:21;;;;;;;1.67;0.52;;;;;;;21.50;47.42;99744.66;16127810;19;130760;-51
2023/08/02 03:02:43;;;;;;;1.80;0.60;;;;;;;21.50;47.31;99708.50;16125626;19;130384;-53
2023/08/02 03:08:06;;;;;;;0.70;0.40;;;;;;;21.51;47.63;99706.53;16119324;19;131102;-56
2023/08/02 03:13:27;;;;;;;0.88;0.40;;;;;;;21.49;47.50;99709.59;16118213;19;129631;-56
2023/08/02 03:18:50;;;;;;;1.83;0.43;;;;;;;21.49;47.87;99723.53;16122433;19;131047;-53
2023/08/02 03:24:12;;;;;;;0.73;0.50;;;;;;;21.49;47.37;99719.91;16123585;19;129542;-53
2023/08/02 03:29:36;;;;;;;0.60;0.55;;;;;;;21.48;47.56;99709.84;16124442;19;130190;-54
2023/08/02 03:34:58;;;;;;;1.20;0.40;;;;;;;21.48;47.88;99677.31;16124998;19;130042;-53
2023/08/02 03:40:20;;;;;;;1.15;0.60;;;;;;;21.47;47.63;99667.31;16117452;19;129869;-55
2023/08/02 03:45:42;;;;;;;0.70;0.52;;;;;;;21.46;47.63;99662.84;16121925;19;129908;-54
2023/08/02 03:51:04;;;;;;;0.75;0.50;;;;;;;21.47;47.64;99636.69;16121084;19;130343;-54
2023/08/02 03:56:26;;;;;;;0.93;0.50;;;;;;;21.46;47.60;99618.34;16119247;19;131116;-57
2023/08/02 04:01:49;;;;;;;1.30;0.55;;;;;;;21.45;47.62;99588.84;16116032;19;130915;-57
2023/08/02 04:07:11;;;;;;;2.90;0.55;;;;;;;21.44;47.42;99573.28;16116647;19;130275;-56
2023/08/02 04:12:33;;;;;;;1.70;0.77;;;;;;;21.45;47.40;99560.22;16116735;19;130290;-55
2023/08/02 04:17:55;;;;;;;2.05;0.52;;;;;;;21.43;47.77;99554.94;16116575;19;129509;-56
2023/08/02 04:23:17;;;;;;;3.17;0.73;;;;;;;21.44;47.38;99530.75;16115113;19;130030;-53
2023/08/02 04:28:39;;;;;;;2.40;0.63;;;;;;;21.42;47.74;99511.53;16121872;19;129763;-55
2023/08/02 04:34:01;;;;;;;1.48;0.80;;;;;;;21.43;47.65;99498.47;16118272;19;129048;-55
2023/08/02 04:39:23;;;;;;;3.75;0.88;;;;;;;21.42;47.91;99489.28;16116078;19;129724;-56
2023/08/02 04:44:45;;;;;;;2.63;0.77;;;;;;;21.41;47.47;99492.38;16115048;19;131028;-58
2023/08/02 04:50:07;;;;;;;2.38;0.73;;;;;;;21.42;47.45;99471.78;16110121;19;131478;-56
2023/08/02 04:55:29;;;;;;;2.40;0.82;;;;;;;21.41;47.52;99453.44;16116376;19;129641;-55
2023/08/02 05:00:51;;;;;;;1.88;0.80;;;;;;;21.41;47.73;99445.94;16116383;19;129703;-54
2023/08/02 05:06:13;;;;;;;1.60;0.73;;;;;;;21.40;47.92;99430.38;16112010;19;131312;-57
2023/08/02 05:11:38;;;;;;;3.65;1.10;;;;;;;21.39;47.81;99414.81;16118312;19;130153;-56
2023/08/02 05:17:00;;;;;;;4.00;1.00;;;;;;;21.38;48.00;99399.25;16109228;19;130715;-55
2023/08/02 05:22:22;;;;;;;3.30;1.10;;;;;;;21.40;47.68;99390.56;16113765;19;129650;-51
2023/08/02 05:27:44;;;;;;;2.33;0.80;;;;;;;21.37;47.70;99367.78;16106957;19;131610;-51
2023/08/02 05:33:06;;;;;;;3.78;1.00;;;;;;;21.38;47.80;99354.72;16115393;19;129904;-55
2023/08/02 05:38:30;;;;;;;4.28;0.95;;;;;;;21.37;47.74;99326.06;16114370;19;130448;-55
2023/08/02 05:43:53;;;;;;;6.77;1.07;;;;;;;21.37;47.77;99305.78;16111056;19;129934;-55
2023/08/02 05:49:15;;;;;;;4.25;0.95;;;;;;;21.36;47.90;99285.47;16110670;19;130504;-57
2023/08/02 05:54:37;;;;;;;12.00;1.70;;;;;;;21.37;47.89;99275.19;16108264;19;129705;-53
2023/08/02 06:00:00;;;;;;;14.20;1.23;;;;;;;21.36;47.92;99256.84;16109597;19;130337;-54
2023/08/02 06:05:22;;;;;;;12.80;1.52;;;;;;;21.40;48.12;99241.19;16105547;19;130906;-57
2023/08/02 06:10:44;;;;;;;10.75;1.30;;;;;;;21.43;47.70;99239.75;16113349;19;129708;-60
2023/08/02 06:16:06;;;;;;;5.00;1.00;;;;;;;21.44;47.92;99225.53;16115562;19;130521;-60
2023/08/02 06:21:28;;;;;;;6.03;1.10;;;;;;;21.44;47.92;99225.53;16109723;19;130987;-60
2023/08/02 06:26:51;;;;;;;12.15;1.30;;;;;;;21.44;47.90;99200.50;16115568;19;129402;-61
2023/08/02 06:32:13;;;;;;;7.85;1.17;;;;;;;21.44;47.89;99192.13;16111160;19;130322;-58
2023/08/02 06:37:35;;;;;;;6.70;1.25;;;;;;;21.45;47.75;99196.56;16111059;19;131159;-59
2023/08/02 06:42:57;;;;;;;6.43;1.20;;;;;;;21.46;47.75;99189.06;16112732;19;129486;-60
2023/08/02 06:48:23;;;;;;;2.70;1.20;;;;;;;21.47;48.09;99174.84;16110424;19;130064;-53
2023/08/02 06:53:45;;;;;;;8.30;1.25;;;;;;;21.49;47.95;99163.41;16119256;19;129303;-60
2023/08/02 06:59:07;;;;;;;3.67;1.38;;;;;;;21.51;48.00;99152.81;16115645;19;130860;-66
2023/08/02 07:04:29;;;;;;;4.18;1.08;;;;;;;21.54;47.81;99148.59;16116430;19;129609;-59
2023/08/02 07:09:51;;;;;;;8.20;1.35;;;;;;;21.56;47.89;99137.97;16117135;19;130338;-56
2023/08/02 07:15:14;;;;;;;4.38;1.17;;;;;;;21.59;48.11;99134.56;16124198;19;129334;-58
2023/08/02 07:20:36;;;;;;;4.53;1.42;;;;;;;21.60;48.44;99128.69;16132734;19;129807;-61
2023/08/02 07:25:58;;;;;;;1.77;1.08;;;;;;;21.63;48.09;99114.16;16166903;19;130431;-58
2023/08/02 07:31:20;;;;;;;3.20;1.00;;;;;;;21.65;48.43;99113.88;16170128;19;129408;-61
2023/08/02 07:36:42;;;;;;;5.68;1.23;;;;;;;21.69;48.38;99105.72;16188416;19;129139;-62
2023/08/02 07:42:04;;;;;;;3.80;0.90;;;;;;;21.70;48.07;99096.22;16172304;19;129315;-52
2023/08/02 07:47:26;;;;;;;3.92;0.85;;;;;;;21.71;48.26;99100.66;16151579;19;129844;-55
2023/08/02 07:52:49;;;;;;;2.38;0.77;;;;;;;21.73;48.46;99099.22;16131756;19;129783;-56
2023/08/02 07:58:11;;;;;;;5.53;0.90;;;;;;;21.74;48.83;99098.06;16134752;19;131457;-56
2023/08/02 08:03:33;;;;;;;2.33;0.88;;;;;;;21.78;48.46;99099.09;16129816;19;130859;-52
2023/08/02 08:08:55;;;;;;;1.45;0.70;;;;;;;21.79;48.33;99080.44;16167169;19;129531;-61
2023/08/02 08:14:17;;;;;;;2.30;0.50;;;;;;;21.81;48.74;99067.03;16144847;19;129280;-59
2023/08/02 08:19:39;;;;;;;1.85;0.70;;;;;;;21.83;48.78;99064.75;16123161;19;135408;-57
2023/08/02 08:25:01;;;;;;;1.15;0.57;;;;;;;21.87;48.83;99059.38;16117804;19;130179;-53
2023/08/02 08:30:23;;;;;;;2.33;0.60;;;;;;;21.93;48.79;99052.53;16123342;19;129977;-57
2023/08/02 08:35:45;;;;;;;1.50;0.50;;;;;;;22.03;48.89;99043.94;16119784;19;130957;-56
2023/08/02 08:41:07;;;;;;;1.70;0.30;;;;;;;22.06;49.12;99034.97;16123184;19;129395;-58
2023/08/02 08:46:33;;;;;;;0.90;0.40;;;;;;;22.08;49.26;99037.47;16135432;19;129762;-59
2023/08/02 08:51:58;;;;;;;3.20;0.50;;;;;;;22.10;49.55;99021.22;16149910;19;129081;-63
2023/08/02 08:57:19;;;;;;;0.60;0.30;;;;;;;22.12;49.59;99010.59;16149396;19;130151;-60
2023/08/02 09:02:43;;;;;;;3.50;0.40;;;;;;;22.13;49.98;99015.88;16132054;19;130005;-59
2023/08/02 09:08:05;;;;;;;0.30;0.28;;;;;;;22.13;49.91;99007.53;16131948;19;129514;-57
2023/08/02 09:13:27;;;;;;;1.27;0.30;;;;;;;22.15;49.91;98998.03;16122056;19;130781;-67
2023/08/02 09:18:49;;;;;;;1.45;0.20;;;;;;;22.15;50.19;98981.31;16120468;19;131073;-61
2023/08/02 09:24:11;;;;;;;1.25;0.20;;;;;;;22.16;50.47;98967.06;16118438;19;129956;-59
2023/08/02 09:29:59;;;;;;;0.28;0.20;;;;;;;22.18;50.30;98961.16;16119838;19;129789;-59
2023/08/02 09:35:21;;;;;;;0.70;0.10;;;;;;;22.14;50.29;98958.19;16112334;19;130627;-58
2023/08/02 09:40:47;;;;;;;0.47;0.20;;;;;;;22.17;50.10;98965.09;16119375;19;129610;-59
2023/08/02 09:46:35;;;;;;;4.95;0.10;;;;;;;22.24;50.14;98969.09;16118741;19;129796;-57
2023/08/02 09:51:58;;;;;;;0.85;0.30;;;;;;;22.26;50.31;98949.31;16116156;19;130427;-57
2023/08/02 09:57:25;;;;;;;1.17;0.20;;;;;;;22.26;50.29;98946.53;16115732;19;130269;-57
2023/08/02 10:02:47;;;;;;;1.60;0.30;;;;;;;22.23;50.36;98933.22;16112106;19;130624;-57
2023/08/02 10:08:12;;;;;;;0.57;0.10;;;;;;;22.20;50.39;98917.13;16116267;19;130144;-59
2023/08/02 10:13:38;;;;;;;0.20;0.20;;;;;;;22.20;50.43;98900.41;16115157;19;130472;-58
2023/08/02 10:19:01;;;;;;;1.88;0.30;;;;;;;22.18;50.93;98908.25;16115853;19;130749;-58
2023/08/02 10:24:27;;;;;;;0.30;0.20;;;;;;;22.16;50.85;98943.94;16110976;19;129791;-58
2023/08/02 10:29:50;;;;;;;0.47;0.30;;;;;;;22.12;50.91;98966.03;16109180;19;130146;-58
2023/08/02 10:35:12;;;;;;;0.70;0.30;;;;;;;22.11;50.62;98954.09;16116042;19;130629;-58
2023/08/02 10:41:00;;;;;;;0.55;0.20;;;;;;;22.13;50.99;98935.13;16108689;19;131343;-58
2023/08/02 10:46:29;;;;;;;3.20;0.40;;;;;;;22.18;51.02;98936.94;16114500;19;129514;-59
2023/08/02 10:51:52;;;;;;;3.00;0.80;;;;;;;22.23;51.50;98922.09;16124536;19;130417;-59
2023/08/02 10:57:15;;;;;;;1.88;0.38;;;;;;;22.26;51.13;98911.13;16129031;19;130190;-59
2023/08/02 11:02:46;;;;;;;1.63;0.40;;;;;;;22.30;51.10;98919.66;16127719;19;129837;-59
2023/08/02 11:08:09;;;;;;;2.83;0.60;;;;;;;22.35;51.43;98921.47;16129292;19;130119;-59
2023/08/02 11:13:41;;;;;;;1.42;0.50;;;;;;;22.39;51.10;98905.75;16125308;19;130649;-59
2023/08/02 11:19:11;;;;;;;1.60;0.40;;;;;;;22.39;51.43;98919.69;16126514;19;129512;-59
2023/08/02 11:24:44;;;;;;;5.15;0.88;;;;;;;22.41;51.21;98922.97;16122977;19;130313;-59
2023/08/02 11:30:07;;;;;;;1.48;0.60;;;;;;;22.38;51.47;98918.88;16125396;19;129294;-58
2023/08/02 11:35:31;;;;;;;2.03;0.65;;;;;;;22.39;51.69;98920.53;16132836;19;129668;-64
2023/08/02 11:40:53;;;;;;;1.65;0.60;;;;;;;22.42;51.54;98919.06;16124535;19;129645;-60
2023/08/02 11:46:26;;;;;;;4.35;1.13;;;;;;;22.44;51.45;98906.44;16127505;19;129676;-59
2023/08/02 11:51:49;;;;;;;3.70;1.00;;;;;;;22.44;51.62;98895.28;16126033;19;130041;-59
2023/08/02 11:57:11;;;;;;;3.05;0.90;;;;;;;22.46;51.50;98894.16;16132790;19;129657;-61
2023/08/02 12:02:35;;;;;;;4.32;0.98;;;;;;;22.46;51.77;98896.94;16126674;19;130909;-61
2023/08/02 12:08:10;;;;;;;4.10;0.93;;;;;;;22.49;51.34;98902.69;16126874;19;129850;-57
2023/08/02 12:13:32;;;;;;;4.97;1.00;;;;;;;22.48;51.20;98914.16;16123507;19;130128;-61
2023/08/02 12:18:57;;;;;;;4.95;1.13;;;;;;;22.49;50.87;98891.53;16130404;19;132447;-62
2023/08/02 12:24:19;;;;;;;5.38;1.40;;;;;;;22.50;50.83;98897.94;16114983;19;131064;-56
2023/08/02 12:29:43;;;;;;;4.95;1.20;;;;;;;22.52;50.63;98904.03;16126304;19;129686;-67
2023/08/02 12:35:06;;;;;;;6.35;1.50;;;;;;;22.52;50.30;98895.66;16122476;19;131048;-74
2023/08/02 12:40:35;;;;;;;8.80;1.60;;;;;;;22.49;49.70;98904.66;16124589;19;129444;-67
2023/08/02 12:45:57;;;;;;;6.60;1.40;;;;;;;22.48;50.13;98900.22;16122334;19;130259;-67
2023/08/02 12:51:20;;;;;;;5.38;1.35;;;;;;;22.48;49.74;98914.97;16128206;19;130181;-70
2023/08/02 12:56:45;;;;;;;3.80;0.80;;;;;;;22.48;49.50;98916.94;16129426;19;130877;-64
2023/08/02 13:02:08;;;;;;;6.28;0.98;;;;;;;22.51;49.11;98916.31;16118583;19;133509;-56
2023/08/02 13:07:30;;;;;;;6.30;1.23;;;;;;;22.53;48.98;98925.16;16116703;19;129430;-63
2023/08/02 13:13:04;;;;;;;5.40;1.20;;;;;;;22.57;48.88;98942.88;16117790;19;128992;-69
2023/08/02 13:18:26;;;;;;;7.07;1.00;;;;;;;22.58;48.50;98944.53;16118360;19;130131;-62
2023/08/02 13:23:51;;;;;;;3.40;0.88;;;;;;;22.57;48.71;98942.88;16113654;19;130866;-58
2023/08/02 13:29:13;;;;;;;5.88;1.10;;;;;;;22.54;48.59;98933.22;16115814;19;130016;-59
2023/08/02 13:34:35;;;;;;;4.60;0.88;;;;;;;22.53;48.14;98922.38;16114106;19;130787;-57
2023/08/02 13:39:57;;;;;;;4.93;0.88;;;;;;;22.51;48.23;98921.88;16107660;19;131565;-57
2023/08/02 13:45:19;;;;;;;5.38;0.70;;;;;;;22.49;47.94;98930.56;16110785;19;130634;-59
2023/08/02 13:50:41;;;;;;;3.03;0.70;;;;;;;22.49;48.07;98924.16;16114129;19;130171;-58
2023/08/02 13:56:03;;;;;;;2.92;0.90;;;;;;;22.47;47.91;98930.03;16115122;19;131596;-58
2023/08/02 14:01:25;;;;;;;6.82;1.13;;;;;;;22.44;48.05;98934.31;16107856;19;129354;-57
2023/08/02 14:06:47;;;;;;;4.18;0.90;;;;;;;22.44;47.67;98927.94;16105438;19;131873;-57
2023/08/02 14:12:14;;;;;;;2.88;0.68;;;;;;;22.43;48.04;98943.81;16108312;19;131382;-54
2023/08/02 14:17:37;;;;;;;4.53;0.75;;;;;;;22.44;47.83;98933.50;16109758;19;130004;-59
2023/08/02 14:22:59;;;;;;;3.58;0.60;;;;;;;22.43;47.65;98943.00;16111164;19;130178;-58
2023/08/02 14:28:21;;;;;;;2.35;0.70;;;;;;;22.43;48.18;98948.56;16119721;19;131016;-57
2023/08/02 14:33:43;;;;;;;3.72;0.80;;;;;;;22.39;47.39;98981.81;16123117;19;130786;-57
2023/08/02 14:39:05;;;;;;;6.32;0.90;;;;;;;22.36;47.27;99010.31;16125810;19;130083;-59
2023/08/02 14:44:27;;;;;;;4.82;0.93;;;;;;;22.33;47.03;98977.50;16124070;19;130635;-59
2023/08/02 14:49:49;;;;;;;5.95;0.98;;;;;;;22.32;46.98;99003.72;16129425;19;129789;-59
2023/08/02 14:55:12;;;;;;;4.43;0.73;;;;;;;22.32;46.98;98998.16;16126247;19;130724;-59
2023/08/02 15:00:34;;;;;;;5.38;0.90;;;;;;;22.35;46.99;98997.53;16123518;19;133828;-59
2023/08/02 15:05:56;;;;;;;8.93;1.00;;;;;;;22.34;46.47;98989.50;16121990;19;131938;-59
2023/08/02 15:11:19;;;;;;;5.65;0.90;;;;;;;22.36;46.76;98992.75;16109215;19;135949;-57
2023/08/02 15:16:41;;;;;;;9.25;1.42;;;;;;;22.36;47.03;98995.53;16121937;19;130649;-58
2023/08/02 15:22:03;;;;;;;3.50;0.80;;;;;;;22.35;47.01;98991.94;16120759;19;130620;-58
2023/08/02 15:27:25;;;;;;;10.00;1.25;;;;;;;22.33;47.23;98997.00;16113404;19;129906;-59
2023/08/02 15:32:47;;;;;;;6.88;0.80;;;;;;;22.33;47.26;98994.22;16122356;19;130477;-59
2023/08/02 15:38:10;;;;;;;2.67;0.70;;;;;;;22.34;47.57;98981.13;16123055;19;130672;-58
2023/08/02 15:43:32;;;;;;;3.15;0.55;;;;;;;22.32;47.37;98981.44;16124998;19;129552;-59
2023/08/02 15:48:54;;;;;;;8.45;1.17;;;;;;;22.33;47.38;98977.50;16112458;19;130413;-59
2023/08/02 15:54:16;;;;;;;6.32;0.80;;;;;;;22.31;47.39;98968.66;16124451;19;129605;-58
2023/08/02 15:59:38;;;;;;;5.47;1.15;;;;;;;22.32;47.22;98975.06;16124813;19;130652;-58
2023/08/02 16:04:59;;;;;;;3.13;0.82;;;;;;;22.32;47.63;98983.41;16121665;19;129995;-59
2023/08/02 16:10:21;;;;;;;6.18;0.80;;;;;;;22.30;47.84;98980.94;16118144;19;130560;-59
2023/08/02 16:15:43;;;;;;;4.35;0.90;;;;;;;22.30;47.60;98992.06;16123366;19;129845;-59
2023/08/02 16:21:06;;;;;;;7.68;1.00;;;;;;;22.28;47.88;99002.72;16109308;19;130205;-54
2023/08/02 16:26:28;;;;;;;5.05;0.80;;;;;;;22.29;48.14;98996.00;16109187;19;131064;-58
2023/08/02 16:31:50;;;;;;;3.63;0.80;;;;;;;22.29;47.82;98990.44;16112897;19;130349;-58
2023/08/02 16:37:12;;;;;;;4.07;0.70;;;;;;;22.31;47.82;98988.16;16105008;19;130103;-57
2023/08/02 16:42:34;;;;;;;2.95;0.90;;;;;;;22.31;47.77;98982.56;16112674;19;131926;-59
2023/08/02 16:47:56;;;;;;;4.80;0.80;;;;;;;22.29;47.44;98976.50;16120127;19;130677;-57
2023/08/02 16:53:18;;;;;;;4.60;0.82;;;;;;;22.29;47.79;98973.72;16114796;19;131015;-57
2023/08/02 16:58:40;;;;;;;4.35;1.10;;;;;;;22.26;47.67;98972.41;16117178;19;131331;-55
2023/08/02 17:04:02;;;;;;;3.63;0.80;;;;;;;22.23;47.61;98973.03;16115203;19;130514;-53
2023/08/02 17:09:25;;;;;;;4.60;1.02;;;;;;;22.21;47.62;98964.19;16113761;19;131090;-56
2023/08/02 17:14:47;;;;;;;4.95;1.00;;;;;;;22.18;47.67;98969.53;16115241;19;130289;-56
2023/08/02 17:20:10;;;;;;;4.65;0.95;;;;;;;22.14;47.82;98972.13;16117419;19;130986;-55
2023/08/02 17:25:32;;;;;;;5.70;0.77;;;;;;;22.12;47.57;98982.75;16116442;19;129760;-55
2023/08/02 17:30:55;;;;;;;2.83;0.57;;;;;;;22.10;47.41;98959.97;16114603;19;130370;-54
2023/08/02 17:36:18;;;;;;;4.50;0.70;;;;;;;22.08;47.48;98965.88;16109571;19;130239;-50
2023/08/02 17:41:40;;;;;;;2.50;0.70;;;;;;;22.08;47.46;98977.00;16113932;19;129502;-57
2023/08/02 17:47:03;;;;;;;7.68;0.52;;;;;;;22.05;47.67;98977.63;16110354;19;130627;-57
2023/08/02 17:52:25;;;;;;;16.33;1.30;;;;;;;22.03;47.69;98974.34;16097901;19;131353;-58
2023/08/02 17:57:47;;;;;;;12.32;1.50;;;;;;;22.03;47.83;98985.47;16108824;19;130853;-58
2023/08/02 18:03:09;;;;;;;10.55;1.15;;;;;;;22.03;47.82;98967.97;16106276;19;130946;-58
2023/08/02 18:08:31;;;;;;;12.68;1.08;;;;;;;22.02;48.11;98961.59;16113431;19;129605;-57
2023/08/02 18:13:54;;;;;;;13.73;1.23;;;;;;;22.02;48.09;98956.00;16111390;19;131216;-58
2023/08/02 18:19:17;;;;;;;17.20;1.10;;;;;;;22.01;48.17;98946.00;16112377;19;129803;-59
2023/08/02 18:24:41;;;;;;;7.68;1.02;;;;;;;22.02;48.10;98944.03;16109414;19;134743;-55
2023/08/02 18:30:04;;;;;;;11.00;0.97;;;;;;;22.01;48.33;98948.78;16109974;19;129692;-55
2023/08/02 18:35:27;;;;;;;19.40;1.23;;;;;;;22.00;48.58;98968.59;16113039;19;130760;-58
2023/08/02 18:40:49;;;;;;;10.60;1.30;;;;;;;22.00;48.53;98947.16;16110104;19;129559;-58
2023/08/02 18:46:11;;;;;;;11.93;1.30;;;;;;;21.99;48.76;98942.72;16110611;19;130615;-58
2023/08/02 18:51:34;;;;;;;8.40;1.00;;;;;;;21.97;48.39;98934.66;16115714;19;131834;-58
2023/08/02 18:56:56;;;;;;;6.57;1.10;;;;;;;21.96;48.55;98935.00;16109051;19;129666;-58
2023/08/02 19:02:19;;;;;;;4.95;0.70;;;;;;;21.95;48.63;98948.09;16111916;19;130668;-58
2023/08/02 19:07:41;;;;;;;8.95;1.25;;;;;;;21.95;48.45;98934.19;16105819;19;130219;-56
2023/08/02 19:13:13;;;;;;;5.05;0.95;;;;;;;21.94;48.86;98943.69;16124463;19;130505;-58
2023/08/02 19:18:36;;;;;;;3.88;1.05;;;;;;;21.93;48.77;98957.88;16123019;19;130383;-55
2023/08/02 19:23:59;;;;;;;6.65;0.80;;;;;;;21.92;49.12;98945.94;16123725;19;130913;-56
2023/08/02 19:29:21;;;;;;;4.05;0.88;;;;;;;21.92;48.59;98950.69;16117688;19;129575;-57
2023/08/02 19:34:48;;;;;;;3.70;0.82;;;;;;;21.92;48.98;98942.31;16122174;19;131197;-57
2023/08/02 19:40:11;;;;;;;7.80;1.00;;;;;;;21.89;48.56;98929.06;16122901;19;130244;-56
2023/08/02 19:45:33;;;;;;;5.68;0.80;;;;;;;21.88;48.57;98919.88;16120916;19;129789;-57
2023/08/02 19:50:56;;;;;;;8.65;1.10;;;;;;;21.87;48.91;98921.00;16122924;19;131496;-56
2023/08/02 19:56:21;;;;;;;10.32;0.77;;;;;;;21.86;49.06;98922.16;16118529;19;130222;-58
2023/08/02 20:01:53;;;;;;;8.15;1.08;;;;;;;21.86;48.77;98908.22;16117067;19;129745;-58
2023/08/02 20:07:15;;;;;;;7.72;1.23;;;;;;;21.84;48.89;98891.06;16117620;19;131084;-56
2023/08/02 20:12:37;;;;;;;6.80;0.98;;;;;;;21.82;48.90;98913.63;16119742;19;129818;-56
2023/08/02 20:17:59;;;;;;;19.63;1.15;;;;;;;21.80;49.14;98915.88;16117421;19;134266;-58
2023/08/02 20:23:22;;;;;;;16.13;1.35;;;;;;;21.79;48.54;98928.16;16114427;19;129628;-58
2023/08/02 20:28:47;;;;;;;22.58;1.17;;;;;;;21.80;48.88;98921.47;16117753;19;130126;-64
2023/08/02 20:34:10;;;;;;;8.50;0.95;;;;;;;21.80;48.88;98918.66;16120832;19;130983;-66
2023/08/02 20:39:33;;;;;;;5.35;1.00;;;;;;;21.79;48.80;98919.00;16120710;19;130790;-66
2023/08/02 20:44:55;;;;;;;8.75;0.98;;;;;;;21.78;49.07;98901.50;16120590;19;130277;-66
2023/08/02 20:50:17;;;;;;;5.53;1.33;;;;;;;21.77;48.57;98902.63;16114940;19;130200;-66
2023/08/02 20:55:39;;;;;;;10.15;1.10;;;;;;;21.75;48.85;98888.22;16119346;19;130714;-66
2023/08/02 21:01:04;;;;;;;11.30;1.20;;;;;;;21.75;49.14;98896.56;16115110;19;130292;-67
2023/08/02 21:06:26;;;;;;;;;;;;;;;21.72;48.69;98891.63;16109127;19;131282;-60
2023/08/02 21:11:48;;;;;;;4.63;0.80;;;;;;;21.74;49.04;98896.84;16119054;19;129458;-60
2023/08/02 21:17:17;;;;;;;4.65;0.82;;;;;;;21.72;48.79;98880.47;16114715;19;129560;-60
2023/08/02 21:22:39;;;;;;;5.78;0.65;;;;;;;21.71;48.82;98884.41;16117481;19;133171;-61
2023/08/02 21:28:02;;;;;;;5.00;0.90;;;;;;;21.71;49.00;98889.16;16114891;19;129766;-60
2023/08/02 21:33:27;;;;;;;3.88;0.80;;;;;;;21.71;49.00;98878.03;16106626;19;130892;-60
2023/08/02 21:38:50;;;;;;;3.45;1.02;;;;;;;21.70;49.00;98881.94;16113180;19;131225;-60
2023/08/02 21:44:12;;;;;;;3.53;0.98;;;;;;;21.70;48.59;98887.50;16113154;19;130700;-60
2023/08/02 21:49:34;;;;;;;6.95;0.80;;;;;;;21.69;48.84;98866.38;16113562;19;134171;-60
2023/08/02 21:54:56;;;;;;;4.32;0.88;;;;;;;21.69;48.75;98880.31;16115546;19;129858;-60
2023/08/02 22:00:20;;;;;;;1.73;0.40;;;;;;;21.68;48.69;98879.47;16109604;19;131791;-60
2023/08/02 22:05:43;;;;;;;2.05;0.47;;;;;;;21.67;48.48;98872.25;16109059;19;133627;-60
2023/08/02 22:11:07;;;;;;;3.20;0.73;;;;;;;21.66;48.46;98877.00;16112663;19;129530;-59
2023/08/02 22:16:33;;;;;;;3.25;0.75;;;;;;;21.66;48.76;98884.53;16107843;19;130820;-60
2023/08/02 22:21:55;;;;;;;3.50;0.60;;;;;;;21.66;48.53;98881.75;16112216;19;129647;-60
2023/08/02 22:27:17;;;;;;;4.07;0.80;;;;;;;21.64;48.33;98881.25;16109897;19;130018;-60
2023/08/02 22:32:39;;;;;;;5.60;0.70;;;;;;;21.64;48.75;98892.38;16105273;19;132976;-60
2023/08/02 22:38:01;;;;;;;0.93;0.40;;;;;;;21.63;48.37;98882.38;16107745;19;130257;-60
2023/08/02 22:43:23;;;;;;;5.05;1.05;;;;;;;21.63;48.48;98904.66;16111505;19;130749;-60
2023/08/02 22:48:45;;;;;;;3.33;0.88;;;;;;;21.61;48.36;98899.38;16124469;19;131037;-60
2023/08/02 22:54:10;;;;;;;4.30;0.60;;;;;;;21.61;48.32;98895.78;16122366;19;129507;-60
2023/08/02 22:59:32;;;;;;;2.03;0.68;;;;;;;21.62;48.52;98930.84;16128185;19;131684;-60
2023/08/02 23:04:55;;;;;;;2.80;0.40;;;;;;;21.60;48.39;98914.44;16124066;19;130355;-60
2023/08/02 23:10:25;;;;;;;1.40;0.57;;;;;;;21.61;48.13;98946.69;16123506;19;129632;-60
2023/08/02 23:15:47;;;;;;;3.42;0.60;;;;;;;21.60;48.52;98960.94;16126926;19;129353;-60
2023/08/02 23:21:13;;;;;;;1.98;0.50;;;;;;;21.60;48.14;98977.63;16121167;19;131671;-60
2023/08/02 23:26:36;;;;;;;1.83;0.55;;;;;;;21.59;48.19;99006.59;16124349;19;131561;-60
2023/08/02 23:31:58;;;;;;;2.05;0.60;;;;;;;21.59;48.37;99006.59;16127036;19;131986;-60
2023/08/02 23:37:20;;;;;;;4.60;0.50;;;;;;;21.59;48.56;99023.28;16123834;19;129653;-61
2023/08/02 23:42:42;;;;;;;1.55;0.50;;;;;;;21.58;48.30;99029.97;16122084;19;130958;-60
2023/08/02 23:48:04;;;;;;;4.53;0.75;;;;;;;21.59;47.97;99043.59;16122522;19;129660;-60
2023/08/02 23:53:26;;;;;;;1.60;0.45;;;;;;;21.58;48.30;99064.19;16117993;19;129896;-60
2023/08/02 23:58:48;;;;;;;1.67;0.50;;;;;;;21.58;48.52;99069.78;16120916;19;130913;-60
